createdAt,value
2022-12-17T00:00:28.118Z,18.47
2022-12-17T00:03:16.109Z,15.37
2022-12-17T00:06:01.416Z,13.23
2022-12-17T00:08:46.435Z,15.03
2022-12-17T00:11:33.200Z,14.00
2022-12-17T00:14:18.526Z,17.93
2022-12-17T00:17:03.882Z,14.87
2022-12-17T00:19:49.165Z,14.70
2022-12-17T00:22:34.365Z,16.70
2022-12-17T00:25:19.488Z,14.50
2022-12-17T00:28:06.332Z,14.10
2022-12-17T00:30:56.976Z,16.40
2022-12-17T00:33:42.377Z,13.73
2022-12-17T00:36:27.775Z,14.97
2022-12-17T00:39:13.039Z,14.63
2022-12-17T00:41:58.412Z,15.63
2022-12-17T00:44:45.102Z,15.37
2022-12-17T00:47:30.537Z,15.97
2022-12-17T00:50:15.715Z,14.17
2022-12-17T00:53:01.215Z,18.07
2022-12-17T00:55:46.677Z,11.57
2022-12-17T00:58:32.050Z,14.97
2022-12-17T01:01:19.336Z,15.63
2022-12-17T01:04:05.190Z,16.20
2022-12-17T01:06:50.604Z,13.23
2022-12-17T01:09:35.762Z,19.03
2022-12-17T01:12:21.041Z,15.70
2022-12-17T01:15:06.462Z,11.70
2022-12-17T01:17:53.233Z,13.90
2022-12-17T01:20:41.717Z,15.43
2022-12-17T01:23:27.341Z,13.50
2022-12-17T01:26:13.108Z,13.50
2022-12-17T01:28:58.724Z,14.53
2022-12-17T01:31:43.943Z,13.03
2022-12-17T01:34:30.712Z,17.00
2022-12-17T01:37:16.069Z,14.23
2022-12-17T01:40:01.507Z,13.17
2022-12-17T01:42:55.407Z,13.63
2022-12-17T01:45:41.334Z,12.87
2022-12-17T01:48:33.337Z,12.33
2022-12-17T01:51:22.029Z,13.13
2022-12-17T01:54:10.096Z,11.73
2022-12-17T01:56:59.453Z,11.33
2022-12-17T01:59:55.242Z,11.67
2022-12-17T02:02:40.913Z,11.37
2022-12-17T02:05:26.609Z,11.40
2022-12-17T02:08:22.263Z,10.97
2022-12-17T02:11:16.099Z,13.33
2022-12-17T02:14:09.021Z,10.53
2022-12-17T02:16:59.710Z,10.37
2022-12-17T02:19:56.707Z,11.53
2022-12-17T02:22:50.306Z,10.20
2022-12-17T02:25:45.700Z,11.87
2022-12-17T02:28:32.907Z,10.70
2022-12-17T02:31:18.317Z,11.87
2022-12-17T02:34:04.287Z,9.60
2022-12-17T02:36:52.470Z,10.80
2022-12-17T02:39:38.044Z,11.13
2022-12-17T02:42:24.758Z,10.37
2022-12-17T02:45:12.536Z,11.67
2022-12-17T02:47:57.795Z,11.37
2022-12-17T02:50:43.142Z,10.63
2022-12-17T02:53:28.818Z,10.60
2022-12-17T02:56:14.091Z,11.07
2022-12-17T02:58:59.535Z,12.03
2022-12-17T03:01:46.536Z,11.60
2022-12-17T03:04:32.137Z,10.73
2022-12-17T03:07:17.661Z,10.83
2022-12-17T03:10:02.629Z,8.83
2022-12-17T03:12:47.772Z,12.00
2022-12-17T03:15:33.039Z,10.30
2022-12-17T03:18:19.666Z,9.93
2022-12-17T03:21:04.838Z,12.83
2022-12-17T03:23:50.286Z,9.10
2022-12-17T03:26:35.786Z,10.20
2022-12-17T03:29:21.141Z,9.30
2022-12-17T03:32:06.358Z,10.53
2022-12-17T03:34:49.601Z,9.83
2022-12-17T03:37:31.373Z,8.63
2022-12-17T03:40:16.707Z,8.27
2022-12-17T03:43:02.079Z,9.27
2022-12-17T03:45:47.317Z,10.10
2022-12-17T03:48:34.233Z,8.50
2022-12-17T03:51:21.061Z,8.60
2022-12-17T03:54:06.948Z,7.50
2022-12-17T03:56:52.530Z,9.27
2022-12-17T03:59:37.990Z,8.80
2022-12-17T04:02:23.533Z,7.20
2022-12-17T04:05:08.822Z,8.73
2022-12-17T04:08:06.833Z,7.97
2022-12-17T04:10:52.096Z,11.23
2022-12-17T04:13:41.014Z,9.40
2022-12-17T04:16:27.226Z,6.97
2022-12-17T04:19:12.646Z,10.77
2022-12-17T04:21:58.007Z,8.83
2022-12-17T04:24:44.969Z,6.83
2022-12-17T04:27:29.400Z,6.90
2022-12-17T04:30:14.696Z,7.43
2022-12-17T04:32:59.949Z,7.77
2022-12-17T04:35:45.317Z,9.10
2022-12-17T04:38:30.638Z,7.73
2022-12-17T04:41:17.763Z,8.77
2022-12-17T04:44:03.746Z,8.53
2022-12-17T04:46:49.076Z,7.80
2022-12-17T04:49:34.102Z,10.23
2022-12-17T04:52:19.252Z,6.60
2022-12-17T04:55:04.530Z,8.40
2022-12-17T04:57:51.675Z,8.60
2022-12-17T05:00:38.973Z,5.10
2022-12-17T05:03:25.843Z,5.73
2022-12-17T05:06:11.061Z,5.50
2022-12-17T05:08:56.383Z,7.03
2022-12-17T05:11:41.758Z,6.73
2022-12-17T05:14:28.508Z,7.13
2022-12-17T05:17:13.755Z,6.60
2022-12-17T05:19:59.045Z,6.03
2022-12-17T05:22:44.533Z,7.17
2022-12-17T05:25:29.904Z,7.33
2022-12-17T05:28:15.281Z,5.67
2022-12-17T05:31:02.069Z,5.97
2022-12-17T05:33:47.284Z,6.00
2022-12-17T05:36:46.955Z,4.93
2022-12-17T05:39:32.168Z,5.17
2022-12-17T05:42:17.558Z,6.23
2022-12-17T05:45:02.862Z,6.57
2022-12-17T05:47:49.495Z,5.67
2022-12-17T05:50:35.062Z,5.87
2022-12-17T05:53:21.438Z,5.90
2022-12-17T05:56:10.571Z,4.50
2022-12-17T05:58:56.272Z,5.23
2022-12-17T06:01:41.969Z,4.70
2022-12-17T06:04:29.803Z,5.77
2022-12-17T06:07:15.191Z,5.47
2022-12-17T06:10:01.038Z,7.43
2022-12-17T06:12:46.687Z,5.83
2022-12-17T06:15:32.131Z,5.70
2022-12-17T06:18:18.007Z,6.07
2022-12-17T06:21:05.091Z,5.37
2022-12-17T06:23:51.145Z,10.17
2022-12-17T06:26:37.770Z,12.27
2022-12-17T06:29:22.959Z,17.77
2022-12-17T06:32:08.265Z,16.43
2022-12-17T06:34:59.135Z,15.07
2022-12-17T06:37:46.789Z,10.67
2022-12-17T06:40:33.695Z,9.70
2022-12-17T06:43:18.795Z,10.17
2022-12-17T06:46:04.294Z,8.57
2022-12-17T06:48:49.870Z,8.50
2022-12-17T06:51:46.727Z,11.17
2022-12-17T06:54:33.709Z,7.27
2022-12-17T06:57:19.219Z,7.00
2022-12-17T07:03:14.460Z,8.07
2022-12-17T07:06:01.212Z,6.93
2022-12-17T07:08:46.629Z,8.13
2022-12-17T07:11:33.524Z,7.53
2022-12-17T07:14:19.003Z,8.73
2022-12-17T07:17:04.713Z,8.13
2022-12-17T07:19:52.537Z,10.20
2022-12-17T07:22:38.103Z,7.13
2022-12-17T07:25:24.481Z,9.17
2022-12-17T07:28:14.250Z,13.10
2022-12-17T07:30:59.771Z,5.63
2022-12-17T07:33:45.581Z,6.90
2022-12-17T07:36:31.360Z,5.60
2022-12-17T07:39:16.527Z,4.07
2022-12-17T07:42:02.223Z,4.80
2022-12-17T07:44:52.252Z,6.40
2022-12-17T07:47:37.356Z,5.07
2022-12-17T07:50:23.341Z,6.27
2022-12-17T07:53:18.194Z,6.93
2022-12-17T07:56:03.265Z,6.07
2022-12-17T07:58:49.800Z,4.67
2022-12-17T08:01:36.657Z,6.00
2022-12-17T08:04:22.060Z,5.03
2022-12-17T08:07:13.231Z,6.13
2022-12-17T08:09:59.361Z,3.55
2022-12-17T08:12:44.522Z,4.45
2022-12-17T08:15:29.618Z,4.65
2022-12-17T08:18:25.892Z,5.47
2022-12-17T08:21:26.478Z,5.72
2022-12-17T08:24:11.900Z,5.47
2022-12-17T08:26:57.383Z,7.57
2022-12-17T08:29:48.264Z,7.70
2022-12-17T08:32:34.906Z,6.45
2022-12-17T08:35:21.813Z,7.10
2022-12-17T08:38:07.291Z,7.85
2022-12-17T08:40:52.630Z,8.30
2022-12-17T08:43:38.193Z,7.30
2022-12-17T08:46:35.436Z,9.38
2022-12-17T08:49:21.168Z,10.13
2022-12-17T08:52:08.332Z,8.13
2022-12-17T08:54:53.515Z,6.93
2022-12-17T08:57:38.716Z,5.78
2022-12-17T09:00:25.521Z,4.65
2022-12-17T09:03:15.406Z,4.45
2022-12-17T09:06:00.881Z,2.90
2022-12-17T09:08:44.020Z,1.75
2022-12-17T09:11:29.458Z,4.45
2022-12-17T09:14:15.084Z,2.13
2022-12-17T09:17:00.156Z,4.47
2022-12-17T09:19:45.339Z,3.15
2022-12-17T09:22:31.052Z,2.22
2022-12-17T09:25:17.927Z,2.65
2022-12-17T09:28:03.560Z,3.15
2022-12-17T09:30:49.043Z,3.17
2022-12-17T09:33:35.288Z,3.35
2022-12-17T09:36:22.348Z,6.57
2022-12-17T09:39:07.937Z,5.78
2022-12-17T09:42:06.884Z,2.97
2022-12-17T09:45:00.395Z,2.63
2022-12-17T09:48:00.390Z,4.95
2022-12-17T09:50:57.806Z,2.22
2022-12-17T09:53:50.610Z,2.40
2022-12-17T09:56:40.585Z,2.45
2022-12-17T09:59:40.293Z,2.10
2022-12-17T10:02:35.497Z,1.52
2022-12-17T10:05:20.526Z,2.67
2022-12-17T10:08:07.563Z,2.25
2022-12-17T10:10:52.787Z,3.20
2022-12-17T10:13:40.367Z,2.97
2022-12-17T10:16:47.252Z,2.35
2022-12-17T10:19:36.370Z,2.33
2022-12-17T10:22:29.471Z,3.55
2022-12-17T10:25:14.889Z,2.00
2022-12-17T10:28:00.266Z,2.25
2022-12-17T10:30:47.269Z,1.45
2022-12-17T10:33:39.389Z,15.27
2022-12-17T10:36:54.383Z,8.35
2022-12-17T10:39:57.478Z,1.52
2022-12-17T10:42:47.497Z,1.02
2022-12-17T10:45:42.377Z,3.90
2022-12-17T10:48:40.648Z,1.35
2022-12-17T10:51:47.750Z,0.80
2022-12-17T10:54:45.451Z,0.47
2022-12-17T10:57:44.762Z,0.50
2022-12-17T11:00:49.835Z,0.60
2022-12-17T11:04:06.410Z,0.43
2022-12-17T11:06:55.338Z,0.10
2022-12-17T11:09:50.727Z,0.50
2022-12-17T11:12:40.820Z,0.20
2022-12-17T11:15:37.783Z,0.40
2022-12-17T11:18:27.979Z,0.82
2022-12-17T11:21:19.145Z,0.30
2022-12-17T11:24:08.866Z,1.35
2022-12-17T11:26:56.938Z,0.60
2022-12-17T11:29:42.663Z,0.70
2022-12-17T11:32:59.319Z,0.80
2022-12-17T11:35:53.173Z,1.13
2022-12-17T11:38:57.198Z,1.30
2022-12-17T11:41:55.725Z,3.25
2022-12-17T11:44:57.602Z,1.35
2022-12-17T11:47:59.236Z,1.75
2022-12-17T11:50:49.686Z,2.90
2022-12-17T11:53:49.707Z,3.35
2022-12-17T11:56:42.617Z,2.38
2022-12-17T11:59:39.291Z,2.88
2022-12-17T12:02:40.311Z,1.40
2022-12-17T12:05:37.986Z,0.98
2022-12-17T12:08:31.770Z,2.35
2022-12-17T12:11:31.527Z,4.25
2022-12-17T12:14:27.924Z,2.67
2022-12-17T12:17:23.520Z,4.20
2022-12-17T12:20:23.736Z,2.50
2022-12-17T12:23:17.275Z,3.38
2022-12-17T12:26:11.158Z,2.80
2022-12-17T12:29:03.514Z,1.88
2022-12-17T12:31:56.288Z,2.55
2022-12-17T12:34:45.363Z,3.00
2022-12-17T12:37:33.520Z,2.38
2022-12-17T12:40:30.863Z,2.13
2022-12-17T12:43:24.490Z,2.08
2022-12-17T12:46:16.983Z,7.40
2022-12-17T12:49:18.530Z,4.50
2022-12-17T12:52:05.285Z,2.55
2022-12-17T12:55:09.715Z,3.38
2022-12-17T12:57:56.849Z,2.03
2022-12-17T13:00:47.334Z,4.40
2022-12-17T13:03:57.342Z,4.18
2022-12-17T13:06:49.744Z,5.43
2022-12-17T13:09:48.126Z,5.72
2022-12-17T13:12:30.449Z,17.33
2022-12-17T13:15:19.386Z,14.43
2022-12-17T13:17:59.287Z,9.27
2022-12-17T13:20:33.918Z,12.43
2022-12-17T13:23:18.788Z,37.28
2022-12-17T13:25:47.610Z,11.90
2022-12-17T13:28:30.803Z,5.07
2022-12-17T13:31:03.399Z,16.10
2022-12-17T13:33:41.662Z,6.60
2022-12-17T13:36:24.977Z,4.60
2022-12-17T13:39:04.788Z,5.75
2022-12-17T13:41:34.860Z,4.03
2022-12-17T13:44:05.749Z,3.65
2022-12-17T13:46:47.294Z,4.65
2022-12-17T13:49:22.705Z,4.85
2022-12-17T13:52:06.526Z,3.83
2022-12-17T13:54:38.334Z,4.60
2022-12-17T13:57:11.129Z,75.95
2022-12-17T13:59:40.894Z,14.32
2022-12-17T14:02:26.059Z,23.13
2022-12-17T14:04:54.643Z,8.55
2022-12-17T14:07:25.343Z,11.32
2022-12-17T14:09:54.555Z,9.43
2022-12-17T14:12:25.793Z,8.52
2022-12-17T14:14:57.201Z,10.65
2022-12-17T14:17:27.578Z,6.80
2022-12-17T14:20:01.281Z,14.25
2022-12-17T14:22:36.885Z,6.03
2022-12-17T14:25:07.321Z,5.60
2022-12-17T14:27:37.136Z,3.72
2022-12-17T14:30:23.412Z,11.50
2022-12-17T14:32:52.088Z,6.82
2022-12-17T14:35:29.440Z,7.60
2022-12-17T14:38:36.963Z,5.40
2022-12-17T14:41:25.821Z,5.45
2022-12-17T14:43:59.178Z,5.13
2022-12-17T14:46:28.771Z,5.25
2022-12-17T14:49:06.824Z,4.45
2022-12-17T14:51:37.235Z,6.90
2022-12-17T14:54:32.039Z,6.15
2022-12-17T14:59:50.500Z,4.13
2022-12-17T15:02:38.122Z,7.00
2022-12-17T15:05:07.673Z,6.05
2022-12-17T15:07:36.334Z,5.38
2022-12-17T15:10:12.224Z,5.80
2022-12-17T15:12:43.940Z,5.32
2022-12-17T15:15:14.719Z,6.82
2022-12-17T15:17:43.853Z,6.45
2022-12-17T15:20:18.780Z,6.57
2022-12-17T15:22:48.190Z,6.53
2022-12-17T15:25:19.462Z,6.40
2022-12-17T15:27:48.848Z,7.60
2022-12-17T15:30:20.527Z,9.50
2022-12-17T15:32:48.614Z,8.90
2022-12-17T15:35:16.716Z,7.22
2022-12-17T15:37:45.092Z,10.23
2022-12-17T15:40:13.567Z,8.80
2022-12-17T15:43:04.687Z,9.65
2022-12-17T15:45:35.149Z,7.67
2022-12-17T15:48:03.282Z,12.55
2022-12-17T15:50:31.896Z,6.93
2022-12-17T15:53:04.345Z,16.70
2022-12-17T15:55:33.646Z,10.13
2022-12-17T15:58:25.669Z,5.55
2022-12-17T16:03:56.776Z,4.03
2022-12-17T16:06:50.196Z,6.83
2022-12-17T16:09:25.510Z,8.95
2022-12-17T16:11:56.333Z,6.72
2022-12-17T16:14:36.099Z,6.15
2022-12-17T16:17:10.572Z,8.23
2022-12-17T16:19:40.261Z,7.82
2022-12-17T16:22:15.524Z,6.57
2022-12-17T16:24:43.946Z,6.47
2022-12-17T16:27:12.680Z,7.80
2022-12-17T16:29:43.548Z,10.10
2022-12-17T16:32:16.914Z,9.77
2022-12-17T16:34:45.412Z,10.95
2022-12-17T16:37:14.041Z,9.18
2022-12-17T16:39:42.411Z,9.88
2022-12-17T16:42:18.672Z,8.43
2022-12-17T16:45:07.190Z,9.23
2022-12-17T16:47:36.543Z,8.43
2022-12-17T16:50:06.580Z,9.00
2022-12-17T16:52:35.577Z,12.73
2022-12-17T16:55:04.069Z,11.07
2022-12-17T16:57:32.165Z,10.27
2022-12-17T17:00:01.256Z,8.70
2022-12-17T17:05:28.085Z,10.60
2022-12-17T17:13:34.514Z,11.55
2022-12-17T17:16:03.056Z,6.72
2022-12-17T17:18:45.659Z,11.55
2022-12-17T17:21:24.569Z,11.48
2022-12-17T17:23:55.189Z,11.95
2022-12-17T17:26:26.534Z,9.52
2022-12-17T17:28:59.588Z,10.50
2022-12-17T17:32:01.248Z,9.98
2022-12-17T17:38:04.847Z,8.23
2022-12-17T17:43:19.703Z,11.00
2022-12-17T17:45:57.116Z,12.25
2022-12-17T17:48:26.493Z,22.83
2022-12-17T17:51:04.174Z,16.45
2022-12-17T17:56:41.792Z,11.90
2022-12-17T17:59:13.884Z,11.70
2022-12-17T18:04:44.348Z,14.48
2022-12-17T18:07:25.228Z,15.20
2022-12-17T18:10:01.344Z,15.18
2022-12-17T18:18:35.589Z,21.70
2022-12-17T18:21:22.630Z,19.00
2022-12-17T18:23:55.526Z,24.70
2022-12-17T18:26:41.626Z,20.93
2022-12-17T18:29:17.649Z,25.60
2022-12-17T18:32:23.717Z,45.73
2022-12-17T18:35:05.979Z,21.67
2022-12-17T18:37:34.173Z,20.83
2022-12-17T18:40:02.557Z,18.20
2022-12-17T18:42:49.557Z,15.90
2022-12-17T18:45:17.961Z,15.47
2022-12-17T18:47:47.114Z,14.00
2022-12-17T18:50:15.619Z,16.40
2022-12-17T18:52:43.618Z,15.20
2022-12-17T18:55:12.243Z,15.27
2022-12-17T18:57:43.037Z,19.20
2022-12-17T19:00:14.125Z,18.00
2022-12-17T19:02:43.518Z,15.87
2022-12-17T19:05:26.473Z,16.97
2022-12-17T19:07:59.518Z,15.07
2022-12-17T19:10:29.879Z,15.03
2022-12-17T19:13:01.104Z,15.83
2022-12-17T19:15:29.383Z,13.10
2022-12-17T19:18:21.416Z,11.30
2022-12-17T19:23:43.820Z,15.70
2022-12-17T19:29:30.503Z,11.97
2022-12-17T19:31:59.199Z,15.63
2022-12-17T19:34:41.910Z,13.87
2022-12-17T19:37:15.462Z,12.73
2022-12-17T19:39:44.277Z,10.47
2022-12-17T19:45:31.670Z,12.80
2022-12-17T19:48:15.480Z,11.77
2022-12-17T19:50:45.895Z,11.50
2022-12-17T19:53:28.563Z,10.37
2022-12-17T19:55:58.708Z,9.00
2022-12-17T20:01:13.961Z,10.60
2022-12-17T20:06:33.286Z,12.93
2022-12-17T20:09:09.650Z,13.70
2022-12-17T20:11:38.382Z,18.07
2022-12-17T20:14:21.487Z,11.57
2022-12-17T20:16:55.359Z,10.30
2022-12-17T20:19:25.970Z,17.87
2022-12-17T20:21:56.006Z,13.20
2022-12-17T20:27:11.364Z,13.27
2022-12-17T20:29:39.799Z,14.33
2022-12-17T20:32:19.533Z,11.03
2022-12-17T20:34:51.328Z,10.47
2022-12-17T20:37:19.811Z,11.00
2022-12-17T20:39:48.570Z,12.10
2022-12-17T20:42:35.504Z,9.47
2022-12-17T20:45:05.008Z,9.80
2022-12-17T20:47:37.514Z,8.23
2022-12-17T20:50:09.369Z,12.20
2022-12-17T20:52:47.349Z,10.37
2022-12-17T20:55:17.989Z,10.83
2022-12-17T20:57:46.183Z,17.13
2022-12-17T21:00:14.814Z,8.77
2022-12-17T21:02:45.759Z,11.23
2022-12-17T21:05:15.381Z,6.40
2022-12-17T21:07:43.873Z,9.03
2022-12-17T21:10:28.744Z,7.67
2022-12-17T21:13:20.199Z,8.57
2022-12-17T21:18:59.162Z,9.00
2022-12-17T21:24:34.767Z,7.50
2022-12-17T21:27:21.377Z,7.00
2022-12-17T21:32:58.310Z,8.13
2022-12-17T21:35:28.606Z,7.33
2022-12-17T21:37:57.314Z,6.77
2022-12-17T21:40:25.387Z,6.90
2022-12-17T21:43:05.645Z,6.83
2022-12-17T21:45:38.952Z,7.00
2022-12-17T21:48:11.581Z,6.80
2022-12-17T21:50:46.238Z,7.50
2022-12-17T21:53:20.223Z,7.10
2022-12-17T21:55:48.828Z,6.07
2022-12-17T21:58:19.488Z,7.57
2022-12-17T22:00:48.184Z,5.77
2022-12-17T22:03:24.853Z,4.87
2022-12-17T22:05:54.874Z,5.47
2022-12-17T22:08:23.244Z,4.67
2022-12-17T22:10:51.845Z,4.83
2022-12-17T22:13:37.735Z,4.07
2022-12-17T22:16:33.839Z,5.03
2022-12-17T22:19:07.565Z,6.00
2022-12-17T22:21:46.989Z,4.83
2022-12-17T22:24:16.892Z,4.83
2022-12-17T22:29:45.551Z,5.13
2022-12-17T22:32:31.882Z,3.97
2022-12-17T22:36:05.567Z,3.50
2022-12-17T22:41:46.001Z,3.00
2022-12-17T22:44:36.891Z,3.80
2022-12-17T22:44:46.624Z,4.07
2022-12-17T22:46:20.658Z,2.90
2022-12-17T22:48:49.599Z,3.07
2022-12-17T22:51:29.615Z,3.63
2022-12-17T22:54:05.389Z,2.83
2022-12-17T22:57:10.318Z,3.00
2022-12-17T22:59:23.953Z,3.67
2022-12-17T23:01:52.643Z,2.53
2022-12-17T23:04:21.237Z,2.07
2022-12-17T23:06:49.407Z,3.83
2022-12-17T23:09:20.412Z,2.50
2022-12-17T23:11:49.598Z,3.20
2022-12-17T23:14:18.686Z,2.93
2022-12-17T23:16:47.268Z,3.00
2022-12-17T23:19:15.697Z,2.33
2022-12-17T23:21:44.019Z,2.63
2022-12-17T23:24:12.043Z,2.60
2022-12-17T23:26:41.413Z,2.77
2022-12-17T23:29:19.019Z,2.43
2022-12-17T23:31:47.340Z,2.77
2022-12-17T23:34:15.650Z,2.90
2022-12-17T23:36:43.787Z,2.47
2022-12-17T23:39:11.836Z,2.27
2022-12-17T23:41:41.364Z,2.37
2022-12-17T23:44:09.432Z,3.03
2022-12-17T23:46:37.767Z,3.43
2022-12-17T23:49:06.557Z,3.20
2022-12-17T23:51:35.163Z,3.80
2022-12-17T23:54:03.282Z,3.33
2022-12-17T23:56:31.366Z,2.13
2022-12-17T23:59:03.349Z,3.30
